createdAt,value
2023-03-13T00:01:26.110Z,427.00
2023-03-13T00:03:55.357Z,429.50
2023-03-13T00:06:38.912Z,424.30
2023-03-13T00:09:09.361Z,429.30
2023-03-13T00:11:36.553Z,442.70
2023-03-13T00:14:05.319Z,425.20
2023-03-13T00:16:34.605Z,431.67
2023-03-13T00:19:01.998Z,432.60
2023-03-13T00:21:30.170Z,429.58
2023-03-13T00:23:59.564Z,426.55
2023-03-13T00:26:28.840Z,434.55
2023-03-13T00:28:56.357Z,428.50
2023-03-13T00:31:30.359Z,424.52
2023-03-13T00:34:03.122Z,431.10
2023-03-13T00:36:35.636Z,429.20
2023-03-13T00:39:04.901Z,430.67
2023-03-13T00:41:34.268Z,428.98
2023-03-13T00:44:01.981Z,431.98
2023-03-13T00:46:30.291Z,434.58
2023-03-13T00:48:58.052Z,428.30
2023-03-13T00:51:27.594Z,435.83
2023-03-13T00:53:57.209Z,432.33
2023-03-13T00:56:24.433Z,431.02
2023-03-13T00:58:51.943Z,429.42
2023-03-13T01:01:26.111Z,432.48
2023-03-13T01:04:05.738Z,434.42
2023-03-13T01:06:35.949Z,430.08
2023-03-13T01:09:06.034Z,432.00
2023-03-13T01:11:36.685Z,439.75
2023-03-13T01:14:07.918Z,427.02
2023-03-13T01:16:36.840Z,434.35
2023-03-13T01:19:14.212Z,434.48
2023-03-13T01:21:43.840Z,434.95
2023-03-13T01:24:11.379Z,424.88
2023-03-13T01:26:38.483Z,439.55
2023-03-13T01:29:05.739Z,429.30
2023-03-13T01:31:36.039Z,438.92
2023-03-13T01:34:06.411Z,432.75
2023-03-13T01:36:36.402Z,433.40
2023-03-13T01:39:03.901Z,431.73
2023-03-13T01:41:31.865Z,433.35
2023-03-13T01:43:59.937Z,433.13
2023-03-13T01:46:29.872Z,438.00
2023-03-13T01:49:21.025Z,429.52
2023-03-13T01:52:04.785Z,435.13
2023-03-13T01:54:40.837Z,439.83
2023-03-13T01:57:21.548Z,425.45
2023-03-13T02:00:08.082Z,435.77
2023-03-13T02:02:37.141Z,424.35
2023-03-13T02:05:07.249Z,431.92
2023-03-13T02:08:14.266Z,427.98
2023-03-13T02:10:51.627Z,432.92
2023-03-13T02:13:20.529Z,416.85
2023-03-13T02:15:48.385Z,420.67
2023-03-13T02:18:16.706Z,419.40
2023-03-13T02:20:44.074Z,427.80
2023-03-13T02:23:22.523Z,420.00
2023-03-13T02:25:52.587Z,437.88
2023-03-13T02:28:28.280Z,418.13
2023-03-13T02:30:58.759Z,419.42
2023-03-13T02:33:37.458Z,434.20
2023-03-13T02:36:06.406Z,425.65
2023-03-13T02:38:39.645Z,426.80
2023-03-13T02:41:07.030Z,430.45
2023-03-13T02:43:37.445Z,422.13
2023-03-13T02:46:17.945Z,416.83
2023-03-13T02:48:54.338Z,421.15
2023-03-13T02:51:41.598Z,416.15
2023-03-13T02:54:17.549Z,417.58
2023-03-13T02:56:49.137Z,415.55
2023-03-13T02:59:16.621Z,414.30
2023-03-13T03:01:43.658Z,415.88
2023-03-13T03:04:10.728Z,415.45
2023-03-13T03:06:37.773Z,420.35
2023-03-13T03:09:05.220Z,415.27
2023-03-13T03:11:32.179Z,415.80
2023-03-13T03:13:59.264Z,424.85
2023-03-13T03:16:26.267Z,412.25
2023-03-13T03:18:53.274Z,422.70
2023-03-13T03:21:21.369Z,412.35
2023-03-13T03:23:48.491Z,414.83
2023-03-13T03:26:15.883Z,407.42
2023-03-13T03:28:42.823Z,406.63
2023-03-13T03:31:13.287Z,407.58
2023-03-13T03:33:41.710Z,50.50
2023-03-13T03:36:13.821Z,151.20
2023-03-13T03:38:42.123Z,0.10
2023-03-13T03:41:11.179Z,5.93
2023-03-13T03:43:38.330Z,409.17
2023-03-13T03:46:05.719Z,406.85
2023-03-13T03:48:32.915Z,6.68
2023-03-13T03:50:59.989Z,400.05
2023-03-13T03:53:28.168Z,408.50
2023-03-13T03:55:55.629Z,403.65
2023-03-13T03:58:22.697Z,407.60
2023-03-13T04:00:49.694Z,407.88
2023-03-13T04:03:17.414Z,395.85
2023-03-13T04:05:44.578Z,404.70
2023-03-13T04:08:11.576Z,403.13
2023-03-13T04:10:38.723Z,408.92
2023-03-13T04:13:05.765Z,401.23
2023-03-13T04:15:32.723Z,401.00
2023-03-13T04:17:59.760Z,405.95
2023-03-13T04:20:28.908Z,402.08
2023-03-13T04:22:56.040Z,401.92
2023-03-13T04:25:23.116Z,405.55
2023-03-13T04:27:50.138Z,401.30
2023-03-13T04:30:18.752Z,399.42
2023-03-13T04:32:45.983Z,397.83
2023-03-13T04:35:12.991Z,401.33
2023-03-13T04:37:40.080Z,395.80
2023-03-13T04:40:07.902Z,396.20
2023-03-13T04:42:34.925Z,401.38
2023-03-13T04:45:02.113Z,414.83
2023-03-13T04:47:29.122Z,406.95
2023-03-13T04:49:56.149Z,408.35
2023-03-13T04:52:23.244Z,406.48
2023-03-13T04:54:51.265Z,409.05
2023-03-13T04:57:18.378Z,409.92
2023-03-13T04:59:45.983Z,412.05
2023-03-13T05:02:14.072Z,409.33
2023-03-13T05:04:41.199Z,410.25
2023-03-13T05:07:08.242Z,410.73
2023-03-13T05:09:35.561Z,415.00
2023-03-13T05:12:08.417Z,423.67
2023-03-13T05:14:35.448Z,416.38
2023-03-13T05:17:02.388Z,416.55
2023-03-13T05:19:29.436Z,414.80
2023-03-13T05:21:56.484Z,418.42
2023-03-13T05:24:23.419Z,419.35
2023-03-13T05:26:50.370Z,417.35
2023-03-13T05:29:17.359Z,416.13
2023-03-13T05:31:44.364Z,417.65
2023-03-13T05:34:11.881Z,415.05
2023-03-13T05:36:38.951Z,418.88
2023-03-13T05:39:05.920Z,422.55
2023-03-13T05:41:32.841Z,425.88
2023-03-13T05:44:00.092Z,429.27
2023-03-13T05:46:27.325Z,418.23
2023-03-13T05:48:54.364Z,422.67
2023-03-13T05:51:21.358Z,422.25
2023-03-13T05:53:48.294Z,415.52
2023-03-13T05:56:15.284Z,428.92
2023-03-13T05:58:42.256Z,426.23
2023-03-13T06:01:11.988Z,420.15
2023-03-13T06:03:39.597Z,422.20
2023-03-13T06:06:06.859Z,432.25
2023-03-13T06:08:33.809Z,429.80
2023-03-13T06:11:02.898Z,418.88
2023-03-13T06:13:30.339Z,431.77
2023-03-13T06:15:58.888Z,425.85
2023-03-13T06:18:27.234Z,423.50
2023-03-13T06:21:00.331Z,431.25
2023-03-13T06:23:28.184Z,425.38
2023-03-13T06:25:55.705Z,424.20
2023-03-13T06:28:22.994Z,426.55
2023-03-13T06:30:49.982Z,417.45
2023-03-13T06:33:17.429Z,427.10
2023-03-13T06:35:55.736Z,422.67
2023-03-13T06:38:27.090Z,420.80
2023-03-13T06:40:54.431Z,438.27
2023-03-13T06:43:22.160Z,423.23
2023-03-13T06:45:49.462Z,424.98
2023-03-13T06:48:16.734Z,420.73
2023-03-13T06:50:43.844Z,431.20
2023-03-13T06:53:19.766Z,426.55
2023-03-13T06:55:47.536Z,431.23
2023-03-13T06:58:29.200Z,427.30
2023-03-13T07:01:10.764Z,428.23
2023-03-13T07:03:39.281Z,429.17
2023-03-13T07:06:06.453Z,431.60
2023-03-13T07:08:34.107Z,430.70
2023-03-13T07:11:08.553Z,428.40
2023-03-13T07:13:35.930Z,430.50
2023-03-13T07:16:05.486Z,428.98
2023-03-13T07:18:33.235Z,436.30
2023-03-13T07:21:05.223Z,435.25
2023-03-13T07:23:34.574Z,434.92
2023-03-13T07:26:08.070Z,439.98
2023-03-13T07:28:37.721Z,451.00
2023-03-13T07:31:17.923Z,455.13
2023-03-13T07:33:45.542Z,449.45
2023-03-13T07:36:15.258Z,465.15
2023-03-13T07:38:43.973Z,449.35
2023-03-13T07:41:15.802Z,462.95
2023-03-13T07:43:43.110Z,469.90
2023-03-13T07:46:18.858Z,468.20
2023-03-13T07:48:47.010Z,476.50
2023-03-13T07:51:27.713Z,472.50
2023-03-13T07:54:04.149Z,461.88
2023-03-13T07:56:31.337Z,489.52
2023-03-13T07:58:58.312Z,497.92
2023-03-13T08:01:30.506Z,494.65
2023-03-13T08:03:58.865Z,491.30
2023-03-13T08:06:27.695Z,489.25
2023-03-13T08:08:58.147Z,508.65
2023-03-13T08:11:27.826Z,493.27
2023-03-13T08:13:56.331Z,502.20
2023-03-13T08:16:27.345Z,511.88
2023-03-13T08:18:57.698Z,513.78
2023-03-13T08:21:33.993Z,509.15
2023-03-13T08:24:06.009Z,506.70
2023-03-13T08:26:36.283Z,523.72
2023-03-13T08:29:08.788Z,523.60
2023-03-13T08:31:46.177Z,527.92
2023-03-13T08:34:14.401Z,518.05
2023-03-13T08:36:42.008Z,526.33
2023-03-13T08:39:17.300Z,526.70
2023-03-13T08:41:44.497Z,515.90
2023-03-13T08:44:14.292Z,526.40
2023-03-13T08:46:41.619Z,523.63
2023-03-13T08:49:09.222Z,527.45
2023-03-13T08:51:37.352Z,523.75
2023-03-13T08:54:05.641Z,532.45
2023-03-13T08:56:33.607Z,522.83
2023-03-13T08:59:03.281Z,527.38
2023-03-13T09:01:33.306Z,521.90
2023-03-13T09:04:03.987Z,527.78
2023-03-13T09:06:33.882Z,528.38
2023-03-13T09:09:01.469Z,524.45
2023-03-13T09:11:28.750Z,535.03
2023-03-13T09:13:59.358Z,542.90
2023-03-13T09:16:29.743Z,542.88
2023-03-13T09:18:58.060Z,545.20
2023-03-13T09:21:29.308Z,550.42
2023-03-13T09:23:57.483Z,547.40
2023-03-13T09:26:25.536Z,562.95
2023-03-13T09:28:53.949Z,565.35
2023-03-13T09:31:26.390Z,558.42
2023-03-13T09:33:54.810Z,561.20
2023-03-13T09:36:23.967Z,560.15
2023-03-13T09:38:54.056Z,556.63
2023-03-13T09:41:39.916Z,551.47
2023-03-13T09:44:26.837Z,542.72
2023-03-13T09:47:11.693Z,538.15
2023-03-13T09:49:47.059Z,552.60
2023-03-13T09:52:42.399Z,554.05
2023-03-13T09:55:37.414Z,545.83
2023-03-13T09:58:29.131Z,555.70
2023-03-13T10:01:04.400Z,558.75
2023-03-13T10:03:47.315Z,554.88
2023-03-13T10:06:21.326Z,533.97
2023-03-13T10:08:48.309Z,542.30
2023-03-13T10:11:30.658Z,587.33
2023-03-13T10:14:22.792Z,567.70
2023-03-13T10:17:09.918Z,558.90
2023-03-13T10:19:47.404Z,577.53
2023-03-13T10:22:23.204Z,578.35
2023-03-13T10:25:01.016Z,579.35
2023-03-13T10:27:28.120Z,594.35
2023-03-13T10:29:55.142Z,600.90
2023-03-13T10:32:22.368Z,618.00
2023-03-13T10:34:59.822Z,630.47
2023-03-13T10:37:33.147Z,614.65
2023-03-13T10:40:25.740Z,612.00
2023-03-13T10:43:01.094Z,619.58
2023-03-13T10:45:32.809Z,641.40
2023-03-13T10:48:10.586Z,642.35
2023-03-13T10:50:38.731Z,635.53
2023-03-13T10:53:28.902Z,653.55
2023-03-13T10:56:02.423Z,646.90
2023-03-13T10:58:45.291Z,655.45
2023-03-13T11:01:22.123Z,653.45
2023-03-13T11:03:53.220Z,666.25
2023-03-13T11:06:32.768Z,699.03
2023-03-13T11:09:20.151Z,709.70
2023-03-13T11:11:53.653Z,707.58
2023-03-13T11:14:24.148Z,716.53
2023-03-13T11:17:36.253Z,733.38
2023-03-13T11:20:27.946Z,721.75
2023-03-13T11:23:01.400Z,720.40
2023-03-13T11:25:33.286Z,743.13
2023-03-13T11:28:42.576Z,750.22
2023-03-13T11:31:24.774Z,736.97
2023-03-13T11:34:28.089Z,769.25
2023-03-13T11:37:14.894Z,754.95
2023-03-13T11:40:15.543Z,774.78
2023-03-13T11:42:48.395Z,772.33
2023-03-13T11:45:50.944Z,776.65
2023-03-13T11:48:48.013Z,844.17
2023-03-13T11:51:34.165Z,840.92
2023-03-13T11:54:28.896Z,849.30
2023-03-13T11:57:06.108Z,829.10
2023-03-13T11:59:54.327Z,831.53
2023-03-13T12:02:33.728Z,841.45
2023-03-13T12:05:07.573Z,855.83
2023-03-13T12:07:45.547Z,858.00
2023-03-13T12:10:40.168Z,863.05
2023-03-13T12:13:39.453Z,853.67
2023-03-13T12:16:20.049Z,876.22
2023-03-13T12:18:49.731Z,862.30
2023-03-13T12:21:19.503Z,860.17
2023-03-13T12:24:12.169Z,878.65
2023-03-13T12:26:48.300Z,851.03
2023-03-13T12:29:58.357Z,854.90
2023-03-13T12:32:32.884Z,865.35
2023-03-13T12:35:14.373Z,860.63
2023-03-13T12:37:54.452Z,838.40
2023-03-13T12:41:06.927Z,847.25
2023-03-13T12:43:40.270Z,852.50
2023-03-13T12:46:10.531Z,836.53
2023-03-13T12:49:27.767Z,847.60
2023-03-13T12:52:31.856Z,838.25
2023-03-13T12:55:24.792Z,839.83
2023-03-13T12:58:39.940Z,822.72
2023-03-13T13:01:14.338Z,821.80
2023-03-13T13:04:28.122Z,831.35
2023-03-13T13:07:03.882Z,827.33
2023-03-13T13:09:36.172Z,844.80
2023-03-13T13:12:20.068Z,822.38
2023-03-13T13:14:50.468Z,839.55
2023-03-13T13:17:46.289Z,841.28
2023-03-13T13:20:36.146Z,844.60
2023-03-13T13:23:43.940Z,837.03
2023-03-13T13:26:36.884Z,848.72
2023-03-13T13:29:12.583Z,852.63
2023-03-13T13:31:59.526Z,855.25
2023-03-13T13:34:32.458Z,861.40
2023-03-13T13:37:06.424Z,716.90
2023-03-13T13:39:47.996Z,871.08
2023-03-13T13:42:33.504Z,862.83
2023-03-13T13:45:15.858Z,879.80
2023-03-13T13:47:49.604Z,868.78
2023-03-13T13:50:25.303Z,876.72
2023-03-13T13:52:53.241Z,891.20
2023-03-13T13:55:43.780Z,912.67
2023-03-13T13:58:23.011Z,502.52
2023-03-13T14:00:55.977Z,888.78
2023-03-13T14:03:29.704Z,698.03
2023-03-13T14:06:03.962Z,747.45
2023-03-13T14:08:41.711Z,912.72
2023-03-13T14:11:14.969Z,903.35
2023-03-13T14:13:43.839Z,909.40
2023-03-13T14:16:26.002Z,917.53
2023-03-13T14:18:53.927Z,911.92
2023-03-13T14:21:25.271Z,927.88
2023-03-13T14:23:53.129Z,931.88
2023-03-13T14:26:26.181Z,919.55
2023-03-13T14:28:54.453Z,986.97
2023-03-13T14:31:39.507Z,916.17
2023-03-13T14:34:11.484Z,910.13
2023-03-13T14:36:52.133Z,935.67
2023-03-13T14:39:31.079Z,925.05
2023-03-13T14:42:12.965Z,1003.80
2023-03-13T14:44:44.152Z,955.70
2023-03-13T14:47:35.062Z,932.40
2023-03-13T14:50:10.062Z,937.92
2023-03-13T14:52:40.018Z,944.60
2023-03-13T14:55:24.042Z,942.67
2023-03-13T14:58:21.289Z,949.80
2023-03-13T15:00:49.772Z,944.78
2023-03-13T15:03:17.519Z,946.53
2023-03-13T15:06:05.752Z,935.13
2023-03-13T15:08:33.902Z,942.55
2023-03-13T15:11:01.414Z,942.60
2023-03-13T15:13:35.926Z,941.15
2023-03-13T15:16:20.352Z,942.20
2023-03-13T15:18:49.577Z,957.53
2023-03-13T15:21:19.196Z,952.75
2023-03-13T15:23:55.708Z,954.88
2023-03-13T15:26:24.236Z,953.60
2023-03-13T15:28:52.109Z,952.53
2023-03-13T15:31:24.183Z,962.63
2023-03-13T15:33:59.496Z,953.13
2023-03-13T15:36:28.713Z,944.42
2023-03-13T15:38:56.411Z,965.45
2023-03-13T15:41:24.370Z,957.63
2023-03-13T15:43:57.773Z,948.60
2023-03-13T15:46:26.600Z,935.50
2023-03-13T15:48:54.243Z,929.63
2023-03-13T15:51:21.329Z,931.17
2023-03-13T15:53:48.448Z,931.22
2023-03-13T15:56:23.256Z,924.58
2023-03-13T15:58:51.732Z,945.25
2023-03-13T16:01:19.545Z,887.15
2023-03-13T16:03:47.127Z,690.65
2023-03-13T16:06:19.152Z,670.67
2023-03-13T16:08:47.138Z,19.85
2023-03-13T16:11:16.550Z,532.28
2023-03-13T16:13:43.860Z,796.55
2023-03-13T16:16:19.380Z,24.88
2023-03-13T16:18:48.091Z,634.35
2023-03-13T16:21:27.439Z,559.67
2023-03-13T16:23:55.346Z,863.45
2023-03-13T16:26:26.197Z,2.85
2023-03-13T16:28:55.377Z,428.92
2023-03-13T16:31:24.573Z,378.70
2023-03-13T16:33:53.927Z,5.78
2023-03-13T16:36:40.888Z,17.80
2023-03-13T16:39:27.095Z,5.03
2023-03-13T16:41:54.434Z,4.78
2023-03-13T16:44:21.849Z,5.72
2023-03-13T16:47:04.385Z,10.18
2023-03-13T16:49:32.346Z,654.75
2023-03-13T16:51:59.248Z,660.95
2023-03-13T16:54:26.375Z,631.25
2023-03-13T16:56:53.412Z,475.10
2023-03-13T16:59:21.569Z,96.30
2023-03-13T17:01:49.203Z,591.85
2023-03-13T17:04:16.609Z,587.35
2023-03-13T17:06:47.925Z,642.63
2023-03-13T17:09:18.623Z,10.13
2023-03-13T17:11:46.285Z,647.03
2023-03-13T17:14:13.693Z,5.45
2023-03-13T17:16:44.229Z,4.63
2023-03-13T17:19:15.301Z,3.78
2023-03-13T17:21:42.629Z,1.73
2023-03-13T17:24:11.537Z,1.30
2023-03-13T17:26:40.067Z,0.20
2023-03-13T17:29:08.702Z,663.88
2023-03-13T17:31:38.879Z,678.97
2023-03-13T17:34:09.095Z,674.28
2023-03-13T17:36:36.719Z,652.53
2023-03-13T17:39:08.746Z,602.10
2023-03-13T17:41:37.337Z,576.42
2023-03-13T17:44:04.730Z,593.83
2023-03-13T17:46:38.657Z,582.25
2023-03-13T17:49:07.709Z,200.18
2023-03-13T17:51:36.513Z,3.90
2023-03-13T17:54:04.003Z,5.88
2023-03-13T17:56:37.481Z,4.65
2023-03-13T17:59:16.099Z,6.65
2023-03-13T18:01:44.072Z,5.90
2023-03-13T18:04:12.219Z,1.77
2023-03-13T18:06:42.445Z,2.15
2023-03-13T18:09:16.847Z,1.80
2023-03-13T18:11:44.466Z,1.55
2023-03-13T18:14:11.887Z,0.10
2023-03-13T18:16:47.978Z,0.10
2023-03-13T18:19:23.365Z,0.20
2023-03-13T18:21:53.551Z,0.28
2023-03-13T18:24:21.376Z,0.30
2023-03-13T18:26:50.173Z,1.63
2023-03-13T18:29:29.458Z,1.60
2023-03-13T18:32:00.497Z,2.60
2023-03-13T18:34:28.641Z,0.82
2023-03-13T18:36:56.309Z,1.15
2023-03-13T18:39:23.986Z,1.80
2023-03-13T18:41:52.789Z,2.45
2023-03-13T18:44:21.087Z,1.98
2023-03-13T18:46:49.322Z,1.65
2023-03-13T18:49:23.520Z,1.50
2023-03-13T18:51:53.982Z,1.08
2023-03-13T18:54:21.131Z,0.60
2023-03-13T18:56:48.605Z,1.60
2023-03-13T18:59:21.592Z,0.75
2023-03-13T19:01:49.857Z,1.48
2023-03-13T19:04:18.110Z,1.98
2023-03-13T19:06:46.566Z,2.80
2023-03-13T19:09:41.653Z,1.05
2023-03-13T19:12:05.278Z,530.78
2023-03-13T19:14:32.792Z,504.60
2023-03-13T19:17:00.328Z,509.48
2023-03-13T19:19:27.748Z,508.60
2023-03-13T19:21:56.368Z,1.92
2023-03-13T19:24:26.940Z,500.77
2023-03-13T19:26:58.914Z,493.75
2023-03-13T19:29:28.748Z,480.63
2023-03-13T19:31:56.604Z,298.17
2023-03-13T19:34:24.001Z,495.65
2023-03-13T19:36:53.473Z,473.33
2023-03-13T19:39:25.933Z,463.13
2023-03-13T19:41:54.111Z,463.48
2023-03-13T19:44:21.780Z,447.00
2023-03-13T19:46:49.364Z,456.23
2023-03-13T19:49:19.658Z,444.40
2023-03-13T19:51:47.598Z,447.13
2023-03-13T19:54:15.525Z,445.00
2023-03-13T19:56:48.385Z,443.17
2023-03-13T19:59:21.969Z,430.35
2023-03-13T20:01:49.596Z,434.80
2023-03-13T20:04:16.911Z,429.92
2023-03-13T20:09:23.362Z,435.90
2023-03-13T20:11:50.801Z,435.98
2023-03-13T20:14:18.295Z,429.55
2023-03-13T20:16:48.853Z,444.95
2023-03-13T20:19:16.401Z,426.45
2023-03-13T20:21:43.436Z,430.48
2023-03-13T20:24:11.020Z,435.08
2023-03-13T20:26:38.429Z,428.90
2023-03-13T20:29:05.537Z,428.77
2023-03-13T20:31:33.208Z,424.65
2023-03-13T20:34:00.545Z,427.55
2023-03-13T20:36:28.190Z,431.42
2023-03-13T20:38:55.389Z,421.83
2023-03-13T20:41:25.810Z,422.48
2023-03-13T20:43:55.826Z,418.08
2023-03-13T20:46:22.995Z,424.10
2023-03-13T20:48:50.438Z,424.10
2023-03-13T20:51:30.755Z,427.40
2023-03-13T20:54:12.709Z,440.23
2023-03-13T20:56:41.021Z,418.00
2023-03-13T20:59:08.233Z,418.00
2023-03-13T21:01:35.362Z,424.60
2023-03-13T21:04:02.500Z,419.88
2023-03-13T21:06:30.270Z,427.95
2023-03-13T21:08:57.382Z,423.45
2023-03-13T21:11:24.432Z,425.73
2023-03-13T21:13:51.730Z,420.42
2023-03-13T21:16:20.106Z,416.83
2023-03-13T21:18:47.852Z,424.73
2023-03-13T21:21:18.900Z,417.15
2023-03-13T21:23:46.927Z,415.73
2023-03-13T21:26:15.029Z,410.13
2023-03-13T21:28:42.402Z,415.17
2023-03-13T21:31:19.593Z,411.65
2023-03-13T21:33:47.593Z,408.27
2023-03-13T21:36:17.366Z,407.98
2023-03-13T21:38:44.818Z,405.58
2023-03-13T21:41:16.645Z,409.17
2023-03-13T21:43:43.838Z,410.23
2023-03-13T21:46:13.736Z,412.13
2023-03-13T21:48:42.883Z,402.52
2023-03-13T21:51:10.565Z,409.02
2023-03-13T21:53:38.821Z,413.63
2023-03-13T21:56:06.606Z,407.20
2023-03-13T21:58:33.693Z,409.50
2023-03-13T22:01:00.789Z,413.65
2023-03-13T22:03:27.818Z,418.40
2023-03-13T22:05:55.381Z,403.05
2023-03-13T22:08:22.561Z,407.00
2023-03-13T22:10:52.305Z,415.85
2023-03-13T22:13:19.357Z,408.75
2023-03-13T22:15:46.951Z,402.73
2023-03-13T22:18:17.224Z,406.02
2023-03-13T22:20:44.618Z,409.77
2023-03-13T22:23:12.891Z,412.00
2023-03-13T22:25:42.450Z,408.58
2023-03-13T22:28:10.987Z,410.15
2023-03-13T22:30:39.360Z,423.65
2023-03-13T22:33:07.873Z,417.80
2023-03-13T22:35:37.633Z,411.02
2023-03-13T22:38:05.298Z,420.58
2023-03-13T22:40:32.931Z,408.97
2023-03-13T22:43:00.562Z,411.93
2023-03-13T22:45:28.007Z,405.20
2023-03-13T22:47:55.374Z,411.57
2023-03-13T22:50:25.768Z,409.77
2023-03-13T22:52:53.522Z,405.73
2023-03-13T22:55:20.895Z,412.30
2023-03-13T22:57:48.349Z,404.57
2023-03-13T23:00:16.369Z,413.07
2023-03-13T23:02:43.859Z,409.63
2023-03-13T23:05:11.380Z,407.57
2023-03-13T23:07:40.852Z,404.83
2023-03-13T23:10:10.166Z,416.10
2023-03-13T23:12:37.529Z,416.43
2023-03-13T23:15:06.252Z,407.30
2023-03-13T23:17:35.061Z,413.65
2023-03-13T23:20:09.407Z,408.13
2023-03-13T23:22:36.894Z,418.30
2023-03-13T23:25:04.605Z,414.83
2023-03-13T23:27:32.094Z,409.10
2023-03-13T23:30:01.908Z,420.02
2023-03-13T23:32:29.243Z,421.30
2023-03-13T23:34:58.575Z,408.38
2023-03-13T23:37:25.562Z,411.45
2023-03-13T23:39:52.567Z,422.55
2023-03-13T23:42:19.597Z,407.50
2023-03-13T23:44:46.573Z,408.45
2023-03-13T23:47:13.945Z,421.67
2023-03-13T23:49:41.118Z,413.23
2023-03-13T23:52:09.074Z,404.67
2023-03-13T23:54:36.341Z,413.13
2023-03-13T23:57:03.526Z,414.90
2023-03-13T23:59:30.620Z,414.73
